Time;durP1;ratioP1;P1;durP2;ratioP2;P2;SDS_P1;SDS_P2;PMS_P1;PMS_P2;Temp;Humidity;BMP_temperature;BMP_pressure;BME280_temperature;BME280_humidity;BME280_pressure;Samples;Min_cycle;Max_cycle;Signal;HPM_P1;HPM_P2
2022/01/31 00:00:36;;;;;;;0.40;0.40;;;;;;;2.87;55.80;94304.69;2616141;47;20153;-71
2022/01/31 00:03:05;;;;;;;2.53;1.83;;;;;;;2.71;55.03;94296.16;2615673;47;20153;-71
2022/01/31 00:05:43;;;;;;;3.60;0.87;;;;;;;2.58;56.16;94282.84;2615742;54;20256;-71
2022/01/31 00:08:11;;;;;;;0.40;0.40;;;;;;;2.14;55.77;94223.13;2615728;54;20170;-71
2022/01/31 00:10:40;;;;;;;0.40;0.40;;;;;;;2.79;55.23;94302.19;2616085;47;20168;-71
2022/01/31 00:13:18;;;;;;;0.50;0.50;;;;;;;0.77;55.44;94076.38;2615932;54;20164;-74
2022/01/31 00:15:56;;;;;;;1.20;1.10;;;;;;;1.97;55.63;94245.16;2617349;39;20559;-72
2022/01/31 00:18:27;;;;;;;0.40;0.40;;;;;;;2.39;56.98;94302.72;2616813;54;20156;-72
2022/01/31 00:20:56;;;;;;;0.43;0.40;;;;;;;2.21;55.66;94265.34;2616240;47;20165;-72
2022/01/31 00:23:25;;;;;;;1.53;1.43;;;;;;;2.45;55.81;94319.84;2615779;54;20149;-72
2022/01/31 00:25:54;;;;;;;0.63;0.63;;;;;;;2.57;57.51;94317.00;2616155;54;20164;-72
2022/01/31 00:28:33;;;;;;;0.60;0.60;;;;;;;1.76;57.39;94226.50;2616429;39;20815;-73
2022/01/31 00:31:03;;;;;;;0.43;0.43;;;;;;;2.25;57.19;94294.25;2615964;54;20160;-72
2022/01/31 00:33:34;;;;;;;0.83;0.83;;;;;;;2.48;56.57;94313.00;2616001;54;20157;-71
2022/01/31 00:36:03;;;;;;;0.73;0.73;;;;;;;1.99;57.24;94265.53;2615997;46;20161;-73
2022/01/31 00:38:31;;;;;;;0.80;0.80;;;;;;;2.34;56.33;94326.19;2615825;47;20196;-71
2022/01/31 00:41:00;;;;;;;0.70;0.70;;;;;;;1.97;56.10;94278.66;2616370;39;20546;-71
2022/01/31 00:44:25;;;;;;;;;;;;;;;;;;;;;
2022/01/31 00:47:15;;;;;;;1.03;1.03;;;;;;;2.22;56.06;94319.88;2615818;47;20160;-71
2022/01/31 00:52:25;;;;;;;0.70;0.70;;;;;;;1.55;55.26;94218.28;2616729;39;20566;-72
2022/01/31 00:54:54;;;;;;;0.40;0.40;;;;;;;2.35;57.27;94325.56;2617109;54;20157;-72
2022/01/31 00:57:22;;;;;;;0.40;0.40;;;;;;;2.34;55.89;94340.88;2616543;54;20275;-72
2022/01/31 00:59:54;;;;;;;0.70;0.70;;;;;;;1.34;55.39;94203.16;2616132;47;20157;-71
2022/01/31 01:02:24;;;;;;;0.50;0.50;;;;;;;2.42;56.70;94321.78;2615921;47;20160;-71
2022/01/31 01:05:01;;;;;;;0.40;0.40;;;;;;;2.66;56.47;94349.66;2616251;47;20145;-72
2022/01/31 01:07:30;;;;;;;0.30;0.30;;;;;;;2.53;54.91;94328.69;2616770;39;20847;-71
2022/01/31 01:09:59;;;;;;;0.53;0.53;;;;;;;2.47;54.11;94333.91;2615938;54;20676;-72
2022/01/31 01:12:28;;;;;;;0.60;0.60;;;;;;;1.67;54.62;94224.56;2616038;54;20200;-72
2022/01/31 01:14:59;;;;;;;0.30;0.30;;;;;;;2.36;55.56;94315.13;2616052;54;20160;-72
2022/01/31 01:17:28;;;;;;;0.20;0.20;;;;;;;2.51;54.84;94348.13;2616084;46;20153;-72
2022/01/31 01:19:57;;;;;;;0.37;0.37;;;;;;;2.67;56.86;94340.66;2615967;54;20164;-72
2022/01/31 01:22:26;;;;;;;0.97;0.97;;;;;;;2.16;55.21;94275.59;2616094;47;20171;-72
2022/01/31 01:24:54;;;;;;;1.23;0.80;;;;;;;2.66;56.57;94324.50;2615968;54;20202;-72
2022/01/31 01:27:24;;;;;;;0.53;0.53;;;;;;;2.69;54.04;94303.72;2615470;54;20250;-72
2022/01/31 01:29:57;;;;;;;8.30;1.00;;;;;;;2.06;53.96;94205.88;2615762;54;20157;-72
2022/01/31 01:32:44;;;;;;;0.70;0.70;;;;;;;2.95;55.52;94326.81;2616022;54;20156;-72
2022/01/31 01:35:20;;;;;;;0.40;0.40;;;;;;;2.61;53.69;94234.06;2615819;46;20209;-72
2022/01/31 01:37:49;;;;;;;2.20;2.10;;;;;;;2.75;55.43;94285.19;2616816;39;20544;-71
2022/01/31 01:40:18;;;;;;;0.40;0.40;;;;;;;2.81;54.51;94324.69;2615733;54;20168;-73
2022/01/31 01:42:46;;;;;;;1.03;1.03;;;;;;;2.75;56.83;94313.16;2615476;54;20150;-72
2022/01/31 01:45:15;;;;;;;0.33;0.33;;;;;;;2.65;55.74;94292.28;2615848;54;20164;-71
2022/01/31 01:47:46;;;;;;;0.90;0.90;;;;;;;2.37;54.89;94267.00;2615790;47;20194;-72
2022/01/31 01:50:15;;;;;;;0.37;0.37;;;;;;;2.53;55.79;94317.50;2616336;39;20558;-72
2022/01/31 01:52:44;;;;;;;0.30;0.30;;;;;;;2.43;55.67;94308.56;2615819;47;20156;-72
2022/01/31 01:55:23;;;;;;;0.50;0.50;;;;;;;2.70;57.15;94316.34;2615739;47;20153;-72
2022/01/31 01:57:52;;;;;;;0.50;0.50;;;;;;;2.32;54.64;94278.56;2615683;54;20164;-72
2022/01/31 02:00:25;;;;;;;1.90;1.83;;;;;;;2.17;55.54;94285.44;2615733;47;20222;-72
2022/01/31 02:03:09;;;;;;;;;;;;;;;;;;;;;
2022/01/31 02:05:38;;;;;;;1.03;1.03;;;;;;;2.63;58.91;94318.06;2615828;54;20156;-72
2022/01/31 02:08:08;;;;;;;1.60;0.93;;;;;;;2.38;53.76;94299.19;2615717;47;20654;-72
2022/01/31 02:10:37;;;;;;;0.40;0.40;;;;;;;2.06;54.84;94256.16;2615797;54;20163;-72
2022/01/31 02:13:08;;;;;;;2.57;1.10;;;;;;;2.55;54.42;94323.22;2615665;47;20736;-72
2022/01/31 02:15:41;;;;;;;0.40;0.40;;;;;;;2.70;56.12;94311.47;2615747;47;20153;-72
2022/01/31 02:18:12;;;;;;;0.37;0.37;;;;;;;2.64;56.35;94322.31;2615796;54;20157;-72
2022/01/31 02:20:55;;;;;;;0.80;0.80;;;;;;;2.55;55.08;94328.81;2615684;47;20259;-73
2022/01/31 02:23:24;;;;;;;1.07;1.07;;;;;;;2.62;57.55;94277.47;2616328;54;20153;-72
2022/01/31 02:25:56;;;;;;;2.47;0.93;;;;;;;2.58;54.24;94282.84;2615796;54;20970;-73
2022/01/31 02:28:37;;;;;;;0.30;0.30;;;;;;;2.89;54.46;94313.19;2615798;47;20156;-72
2022/01/31 02:31:09;;;;;;;0.60;0.60;;;;;;;2.40;53.51;94315.34;2616164;39;20569;-71
2022/01/31 02:33:37;;;;;;;0.50;0.50;;;;;;;1.84;56.79;94229.75;2615187;47;20171;-72
2022/01/31 02:36:12;;;;;;;0.77;0.77;;;;;;;2.37;54.93;94331.28;2614566;54;20182;-71
2022/01/31 02:38:47;;;;;;;0.40;0.40;;;;;;;1.83;54.99;94233.88;2614590;54;21013;-71
2022/01/31 02:41:18;;;;;;;0.40;0.40;;;;;;;1.80;54.40;94198.81;2615366;47;20160;-71
2022/01/31 02:43:54;;;;;;;0.37;0.37;;;;;;;2.58;54.14;94302.41;2616134;39;20602;-71
2022/01/31 02:46:26;;;;;;;0.83;0.83;;;;;;;2.33;54.31;94260.44;2615569;47;20693;-71
2022/01/31 02:48:56;;;;;;;0.90;0.90;;;;;;;1.72;54.62;94232.59;2616293;54;20157;-71
2022/01/31 02:51:33;;;;;;;0.30;0.30;;;;;;;2.38;55.66;94334.81;2615707;39;20549;-71
2022/01/31 02:54:02;;;;;;;0.30;0.30;;;;;;;2.57;57.58;94328.19;2615827;54;20488;-72
2022/01/31 02:56:31;;;;;;;0.50;0.50;;;;;;;2.20;55.42;94339.31;2617124;54;20164;-72
2022/01/31 02:59:00;;;;;;;0.50;0.50;;;;;;;2.26;54.64;94329.25;2617734;54;20180;-72
2022/01/31 03:01:31;;;;;;;0.50;0.50;;;;;;;2.22;55.77;94339.44;2617501;47;20189;-74
2022/01/31 03:04:00;;;;;;;0.30;0.30;;;;;;;2.23;55.82;94338.13;2617647;47;20669;-72
2022/01/31 03:06:49;;;;;;;0.50;0.50;;;;;;;2.01;54.50;94307.56;2617496;54;20149;-72
2022/01/31 03:09:17;;;;;;;0.60;0.60;;;;;;;2.27;56.13;94327.19;2617677;54;20269;-71
2022/01/31 03:11:46;;;;;;;0.83;0.83;;;;;;;2.40;55.71;94348.91;2616715;54;20194;-72
2022/01/31 03:14:22;;;;;;;1.07;1.07;;;;;;;2.43;54.89;94336.50;2616059;47;20164;-73
2022/01/31 03:16:54;;;;;;;0.30;0.30;;;;;;;2.25;55.13;94338.97;2617725;31;20607;-70
2022/01/31 03:19:23;;;;;;;0.43;0.43;;;;;;;1.71;55.05;94263.91;2616803;54;20172;-72
2022/01/31 03:21:54;;;;;;;0.30;0.30;;;;;;;1.45;55.13;94187.72;2616388;54;20179;-71
2022/01/31 03:24:23;;;;;;;0.40;0.40;;;;;;;2.33;55.53;94338.69;2616864;54;20159;-72
2022/01/31 03:26:52;;;;;;;0.47;0.47;;;;;;;1.59;54.07;94260.38;2616265;47;20168;-73
2022/01/31 03:29:20;;;;;;;0.87;0.87;;;;;;;2.09;54.84;94335.22;2616396;54;20157;-72
2022/01/31 03:31:49;;;;;;;1.80;0.97;;;;;;;1.93;55.26;94301.50;2616321;54;20188;-73
2022/01/31 03:34:18;;;;;;;0.33;0.33;;;;;;;2.10;55.52;94319.91;2616328;54;20156;-73
2022/01/31 03:36:47;;;;;;;0.33;0.33;;;;;;;2.09;55.74;94319.19;2616220;54;20156;-72
2022/01/31 03:39:27;;;;;;;0.40;0.40;;;;;;;1.82;55.51;94271.53;2616167;54;20196;-72
2022/01/31 03:41:56;;;;;;;0.70;0.70;;;;;;;2.23;55.13;94333.25;2617197;39;20555;-71
2022/01/31 03:44:32;;;;;;;0.40;0.40;;;;;;;2.34;56.40;94328.97;2616158;47;20160;-71
2022/01/31 03:47:01;;;;;;;0.30;0.30;;;;;;;2.03;57.28;94284.59;2616432;54;20197;-70
2022/01/31 03:49:30;;;;;;;0.43;0.43;;;;;;;2.43;56.41;94333.69;2616102;47;20171;-71
2022/01/31 03:51:58;;;;;;;0.40;0.40;;;;;;;2.28;55.40;94315.41;2616318;54;20164;-70
2022/01/31 03:54:30;;;;;;;0.50;0.50;;;;;;;1.60;55.86;94243.03;2616174;54;20790;-72
2022/01/31 03:56:59;;;;;;;0.40;0.40;;;;;;;2.35;56.80;94338.81;2616361;54;20333;-71
2022/01/31 03:59:27;;;;;;;0.50;0.50;;;;;;;2.07;55.74;94293.94;2616237;47;20176;-72
2022/01/31 04:01:56;;;;;;;0.50;0.50;;;;;;;1.19;54.32;94223.16;2616356;47;20186;-70
2022/01/31 04:04:25;;;;;;;0.40;0.40;;;;;;;1.65;53.72;94267.03;2616639;54;20164;-71
2022/01/31 04:06:54;;;;;;;0.50;0.50;;;;;;;2.60;56.22;94344.44;2616330;54;20165;-72
2022/01/31 04:09:31;;;;;;;0.47;0.47;;;;;;;1.75;56.97;94192.28;2616480;47;20145;-72
2022/01/31 04:12:00;;;;;;;0.67;0.67;;;;;;;2.58;53.13;94344.34;2616494;47;20157;-71
2022/01/31 04:14:29;;;;;;;0.63;0.63;;;;;;;2.21;53.94;94279.31;2616108;47;20717;-71
2022/01/31 04:16:59;;;;;;;0.87;0.87;;;;;;;2.26;53.14;94336.91;2616180;54;20268;-72
2022/01/31 04:22:15;;;;;;;1.33;1.23;;;;;;;1.72;53.12;94254.19;2616586;46;20172;-72
2022/01/31 04:24:48;;;;;;;0.50;0.50;;;;;;;2.11;56.16;94316.53;2616737;47;20161;-72
2022/01/31 04:27:19;;;;;;;0.33;0.33;;;;;;;2.10;54.34;94334.63;2617041;54;21084;-73
2022/01/31 04:29:55;;;;;;;0.50;0.50;;;;;;;2.04;56.51;94342.66;2616394;54;20157;-73
2022/01/31 04:32:26;;;;;;;0.40;0.40;;;;;;;1.45;54.64;94260.28;2616660;54;20148;-73
2022/01/31 04:34:55;;;;;;;0.30;0.30;;;;;;;1.09;56.51;94225.34;2617148;54;20156;-73
2022/01/31 04:37:25;;;;;;;0.40;0.40;;;;;;;1.82;55.65;94305.03;2616791;54;20202;-73
2022/01/31 04:39:57;;;;;;;0.60;0.60;;;;;;;1.39;55.61;94282.22;2616805;54;20184;-73
2022/01/31 04:42:25;;;;;;;0.30;0.30;;;;;;;1.82;55.59;94330.16;2616861;47;20175;-71
2022/01/31 04:44:57;;;;;;;0.57;0.57;;;;;;;1.10;55.72;94232.38;2616678;54;20156;-71
2022/01/31 04:47:34;;;;;;;0.50;0.50;;;;;;;1.19;55.93;94234.31;2616278;47;20665;-72
2022/01/31 04:50:02;;;;;;;0.50;0.50;;;;;;;1.52;55.91;94266.94;2616665;54;20167;-72
2022/01/31 04:52:31;;;;;;;0.50;0.50;;;;;;;2.13;56.08;94319.44;2616610;54;20165;-72
2022/01/31 04:55:02;;;;;;;0.40;0.40;;;;;;;1.19;55.57;94220.38;2616732;54;20157;-72
2022/01/31 04:57:31;;;;;;;1.13;0.60;;;;;;;1.62;55.64;94306.63;2616676;54;20160;-72
2022/01/31 05:00:00;;;;;;;0.50;0.50;;;;;;;1.69;55.07;94300.78;2616611;54;20161;-72
2022/01/31 05:02:29;;;;;;;0.40;0.40;;;;;;;1.71;54.65;94281.38;2616657;54;20161;-73
2022/01/31 05:04:57;;;;;;;0.40;0.40;;;;;;;1.94;55.96;94322.50;2616410;54;20160;-73
2022/01/31 05:07:26;;;;;;;0.30;0.30;;;;;;;1.23;55.33;94242.91;2616986;54;20192;-71
2022/01/31 05:09:55;;;;;;;0.40;0.40;;;;;;;1.50;56.95;94325.44;2616709;54;20152;-71
2022/01/31 05:12:35;;;;;;;0.40;0.40;;;;;;;1.39;55.04;94290.59;2616723;47;20251;-71
2022/01/31 05:15:13;;;;;;;0.60;0.60;;;;;;;1.36;55.60;94314.16;2616464;54;20172;-71
2022/01/31 05:17:42;;;;;;;0.30;0.30;;;;;;;1.56;55.82;94314.63;2616639;54;20168;-72
2022/01/31 05:20:11;;;;;;;0.43;0.43;;;;;;;1.40;55.56;94297.63;2616445;54;20145;-72
2022/01/31 05:22:40;;;;;;;0.40;0.40;;;;;;;1.54;56.60;94284.53;2616730;47;20157;-72
2022/01/31 05:25:10;;;;;;;0.30;0.30;;;;;;;1.34;55.06;94266.59;2616421;54;20149;-72
2022/01/31 05:27:52;;;;;;;0.50;0.50;;;;;;;1.59;55.05;94303.00;2616770;47;20149;-71
2022/01/31 05:30:23;;;;;;;1.80;0.60;;;;;;;1.69;54.95;94316.81;2616152;54;20384;-72
2022/01/31 05:32:53;;;;;;;0.43;0.43;;;;;;;1.60;55.82;94317.69;2616592;54;20170;-72
2022/01/31 05:35:21;;;;;;;0.80;0.80;;;;;;;1.41;55.52;94324.22;2616687;47;20160;-72
2022/01/31 05:37:50;;;;;;;0.53;0.53;;;;;;;1.53;56.10;94316.56;2616544;47;20199;-71
2022/01/31 05:40:19;;;;;;;0.40;0.40;;;;;;;1.53;57.78;94296.31;2616412;54;20173;-72
2022/01/31 05:42:58;;;;;;;0.82;0.82;;;;;;;1.93;55.53;94311.94;2616274;54;20400;-73
2022/01/31 05:45:30;;;;;;;0.40;0.40;;;;;;;1.77;55.32;94261.47;2616630;54;20149;-72
2022/01/31 05:48:02;;;;;;;0.67;0.67;;;;;;;-0.13;56.14;94022.94;2616641;47;21289;-72
2022/01/31 05:50:31;;;;;;;0.40;0.40;;;;;;;1.97;54.78;94314.97;2616624;47;20159;-71
2022/01/31 05:53:00;;;;;;;0.53;0.53;;;;;;;1.49;54.81;94298.88;2617016;39;20553;-72
2022/01/31 05:55:37;;;;;;;0.50;0.50;;;;;;;1.39;56.63;94324.09;2616534;47;20202;-71
2022/01/31 05:58:32;;;;;;;0.40;0.40;;;;;;;1.19;55.50;94231.53;2616493;47;20167;-71
2022/01/31 06:01:02;;;;;;;0.50;0.50;;;;;;;1.85;56.43;94328.22;2616081;54;20160;-72
2022/01/31 06:03:31;;;;;;;1.63;0.57;;;;;;;1.59;54.60;94303.00;2616352;50;20164;-71
2022/01/31 06:06:03;;;;;;;0.47;0.47;;;;;;;1.17;55.16;94253.00;2616637;54;20191;-72
2022/01/31 06:08:40;;;;;;;0.40;0.40;;;;;;;1.31;55.37;94274.13;2615923;47;20176;-71
2022/01/31 06:11:12;;;;;;;0.60;0.60;;;;;;;1.51;55.78;94307.34;2617792;39;20536;-72
2022/01/31 06:13:45;;;;;;;1.03;1.03;;;;;;;0.98;54.34;94256.72;2616203;46;20172;-72
2022/01/31 06:16:15;;;;;;;0.53;0.53;;;;;;;1.36;54.95;94231.19;2616435;54;20159;-71
2022/01/31 06:18:43;;;;;;;0.40;0.40;;;;;;;1.89;54.68;94314.50;2616191;47;20153;-72
2022/01/31 06:21:27;;;;;;;0.57;0.50;;;;;;;0.78;53.35;94152.38;2616277;47;20212;-72
2022/01/31 06:23:56;;;;;;;0.93;0.93;;;;;;;2.02;55.19;94334.16;2616963;47;20159;-72
2022/01/31 06:26:24;;;;;;;0.20;0.20;;;;;;;2.05;54.40;94335.72;2617187;47;20148;-72
2022/01/31 06:29:06;;;;;;;;;;;;;;;;;;;;;
2022/01/31 06:37:02;;;;;;;0.73;0.73;;;;;;;1.72;49.49;94223.47;2616558;47;20182;-72
2022/01/31 06:39:31;;;;;;;0.40;0.40;;;;;;;1.84;50.26;94256.94;2616364;54;20237;-71
2022/01/31 06:42:07;;;;;;;0.43;0.43;;;;;;;2.29;50.77;94299.34;2616219;54;20186;-73
2022/01/31 06:44:42;;;;;;;0.70;0.70;;;;;;;2.12;51.62;94284.47;2616381;54;20185;-72
2022/01/31 06:47:16;;;;;;;0.30;0.30;;;;;;;1.73;51.92;94216.56;2616225;54;20164;-72
2022/01/31 06:49:44;;;;;;;1.07;1.07;;;;;;;2.09;51.40;94220.69;2616999;54;20149;-71
2022/01/31 06:52:13;;;;;;;0.30;0.30;;;;;;;2.34;51.76;94282.19;2616992;47;20668;-71
2022/01/31 06:54:43;;;;;;;1.07;1.07;;;;;;;2.25;51.13;94271.91;2617140;54;20164;-71
2022/01/31 06:57:12;;;;;;;1.33;0.63;;;;;;;2.05;50.36;94287.53;2617193;54;20157;-73
2022/01/31 06:59:43;;;;;;;0.50;0.50;;;;;;;1.48;51.28;94194.16;2617062;54;20145;-73
2022/01/31 07:02:12;;;;;;;0.47;0.47;;;;;;;1.91;53.20;94256.72;2616900;54;20167;-70
2022/01/31 07:04:41;;;;;;;0.40;0.40;;;;;;;1.27;51.08;94186.66;2617083;54;20152;-70
2022/01/31 07:07:12;;;;;;;0.90;0.60;;;;;;;1.70;52.04;94217.78;2616760;47;20412;-70
2022/01/31 07:09:55;;;;;;;0.60;0.60;;;;;;;0.98;49.70;94131.97;2615128;39;20662;-73
2022/01/31 07:15:17;;;;;;;0.57;0.57;;;;;;;2.77;48.77;94274.13;2615733;54;20149;-72
2022/01/31 07:18:01;;;;;;;0.53;0.53;;;;;;;3.19;48.93;94274.97;2616235;54;20665;-74
2022/01/31 07:20:36;;;;;;;0.33;0.33;;;;;;;2.75;47.34;94232.06;2615740;54;20165;-72
2022/01/31 07:23:17;;;;;;;0.55;0.55;;;;;;;2.79;47.68;94207.13;2616543;39;20765;-71
2022/01/31 07:25:48;;;;;;;0.50;0.50;;;;;;;2.72;47.77;94213.72;2616627;54;20180;-72
2022/01/31 07:28:35;;;;;;;0.53;0.53;;;;;;;2.63;47.08;94241.84;2617148;54;20165;-72
2022/01/31 07:31:11;;;;;;;0.88;0.88;;;;;;;2.64;46.69;94251.69;2615479;54;20392;-72
2022/01/31 07:33:56;;;;;;;0.40;0.40;;;;;;;1.92;48.38;94110.13;2616284;47;20160;-75
2022/01/31 07:36:25;;;;;;;0.40;0.40;;;;;;;2.98;46.94;94231.19;2616224;46;20404;-74
2022/01/31 07:39:16;;;;;;;0.40;0.40;;;;;;;2.94;47.74;94230.97;2616481;47;20204;-71
2022/01/31 07:41:54;;;;;;;0.50;0.50;;;;;;;3.18;46.55;94237.13;2616572;31;20734;-72
2022/01/31 07:44:49;;;;;;;0.63;0.63;;;;;;;1.60;47.35;93980.69;2617436;31;20643;-71
2022/01/31 07:50:03;;;;;;;0.60;0.60;;;;;;;3.55;46.37;94217.38;2616327;47;20157;-72
2022/01/31 07:52:58;;;;;;;7.23;0.90;;;;;;;3.07;47.02;94143.56;2616636;54;20165;-73
2022/01/31 07:55:27;;;;;;;1.50;0.93;;;;;;;2.77;44.92;94155.94;2616159;54;20163;-72
2022/01/31 07:58:06;;;;;;;0.30;0.30;;;;;;;3.68;47.45;94232.72;2616201;47;20149;-71
2022/01/31 08:00:35;;;;;;;0.40;0.40;;;;;;;3.26;47.57;94200.47;2617023;54;20162;-73
2022/01/31 08:05:48;;;;;;;0.40;0.40;;;;;;;3.35;44.87;94158.28;2615750;39;20485;-74
2022/01/31 08:08:24;;;;;;;0.57;0.53;;;;;;;4.10;44.63;94192.09;2616699;47;20152;-76
2022/01/31 08:10:52;;;;;;;0.50;0.50;;;;;;;4.00;45.51;94231.53;2616758;54;20145;-70
2022/01/31 08:13:22;;;;;;;0.97;0.70;;;;;;;3.25;43.95;94177.34;2615623;54;20171;-72
2022/01/31 08:16:01;;;;;;;3.87;1.00;;;;;;;3.19;44.17;94202.94;2616331;54;20150;-71
2022/01/31 08:19:14;;;;;;;0.40;0.40;;;;;;;3.08;46.24;94219.81;2615639;47;20177;-70
2022/01/31 08:21:46;;;;;;;1.40;1.13;;;;;;;2.77;46.54;94181.09;2617127;39;20564;-71
2022/01/31 08:24:14;;;;;;;0.40;0.40;;;;;;;3.63;45.86;94191.84;2616538;54;20182;-71
2022/01/31 08:26:43;;;;;;;1.50;1.50;;;;;;;3.68;45.06;94187.91;2615479;47;20157;-70
2022/01/31 08:29:21;;;;;;;0.50;0.50;;;;;;;4.41;44.33;94217.41;2615611;47;20157;-70
2022/01/31 08:31:52;;;;;;;0.20;0.20;;;;;;;4.67;43.15;94206.72;2614581;47;20176;-72
2022/01/31 08:35:47;;;;;;;0.50;0.50;;;;;;;4.85;42.32;94204.06;2615651;54;20164;-73
2022/01/31 08:37:26;;;;;;;0.30;0.30;;;;;;;3.65;43.02;94089.06;2615681;47;20153;-75
2022/01/31 08:39:55;;;;;;;0.77;0.77;;;;;;;4.63;43.47;94168.00;2614517;47;20424;-71
2022/01/31 08:42:24;;;;;;;0.70;0.70;;;;;;;4.55;42.02;94204.06;2612637;54;20168;-71
2022/01/31 08:44:53;;;;;;;1.27;1.27;;;;;;;4.67;46.11;94203.91;2614855;47;20177;-71
2022/01/31 08:47:30;;;;;;;0.40;0.40;;;;;;;4.43;42.82;94175.47;2613719;47;20163;-71
2022/01/31 08:49:58;;;;;;;0.40;0.40;;;;;;;4.84;43.55;94213.81;2615367;47;20677;-70
2022/01/31 08:52:30;;;;;;;0.47;0.47;;;;;;;5.11;44.04;94210.13;2613900;47;20669;-72
2022/01/31 08:54:58;;;;;;;0.50;0.50;;;;;;;4.77;41.97;94196.00;2612408;47;20181;-71
2022/01/31 08:57:27;;;;;;;0.50;0.50;;;;;;;4.36;44.96;94153.38;2614352;39;20603;-71
2022/01/31 08:59:56;;;;;;;0.40;0.40;;;;;;;4.61;41.58;94207.19;2614141;54;20164;-73
2022/01/31 09:02:37;;;;;;;0.40;0.40;;;;;;;4.49;42.96;94211.50;2616368;54;20159;-71
2022/01/31 09:11:57;;;;;;;0.37;0.37;;;;;;;4.42;41.03;94171.22;2612560;47;20148;-72
2022/01/31 09:14:26;;;;;;;0.70;0.70;;;;;;;4.54;43.32;94204.72;2614955;54;20185;-70
2022/01/31 09:16:55;;;;;;;0.40;0.40;;;;;;;4.80;40.54;94211.53;2612272;54;20152;-70
2022/01/31 09:19:24;;;;;;;9.27;0.80;;;;;;;4.08;42.02;94119.88;2615681;47;20213;-73
2022/01/31 09:21:53;;;;;;;0.40;0.40;;;;;;;4.06;40.39;94158.25;2615473;47;20153;-71
2022/01/31 09:24:21;;;;;;;0.40;0.40;;;;;;;4.31;42.03;94188.91;2615193;54;20160;-72
2022/01/31 09:26:50;;;;;;;0.40;0.40;;;;;;;4.77;42.27;94190.38;2613890;47;20151;-71
2022/01/31 09:32:20;;;;;;;0.50;0.50;;;;;;;4.89;43.41;94165.69;2613548;47;20161;-69
2022/01/31 09:35:26;;;;;;;0.50;0.50;;;;;;;3.87;41.19;93988.56;2612884;54;20730;-74
2022/01/31 09:37:55;;;;;;;0.30;0.30;;;;;;;3.80;41.16;93995.25;2612691;39;20637;-71
2022/01/31 09:40:27;;;;;;;0.30;0.30;;;;;;;4.80;42.05;94154.72;2612830;54;20194;-73
2022/01/31 09:46:16;;;;;;;0.63;0.63;;;;;;;5.00;43.30;94150.75;2615504;47;20207;-72
2022/01/31 09:48:45;;;;;;;0.40;0.40;;;;;;;4.76;41.60;94141.25;2616736;47;20167;-71
2022/01/31 09:51:17;;;;;;;0.40;0.40;;;;;;;4.91;41.39;94114.56;2615509;54;20764;-72
2022/01/31 09:53:47;;;;;;;0.40;0.40;;;;;;;4.23;40.58;94037.19;2614289;54;20153;-71
2022/01/31 09:56:21;;;;;;;0.37;0.37;;;;;;;5.14;43.77;94119.06;2613398;54;20149;-71
2022/01/31 09:58:51;;;;;;;1.30;0.97;;;;;;;4.53;39.49;94124.72;2613638;54;20148;-72
2022/01/31 10:01:28;;;;;;;0.30;0.30;;;;;;;4.46;39.54;94033.28;2614424;54;20164;-71
2022/01/31 10:04:04;;;;;;;0.67;0.67;;;;;;;4.29;38.59;94085.81;2615063;54;20190;-72
2022/01/31 10:06:34;;;;;;;3.13;0.57;;;;;;;5.36;38.13;94100.34;2614992;54;20179;-71
2022/01/31 10:09:07;;;;;;;0.20;0.20;;;;;;;5.64;40.08;94101.56;2616142;39;20577;-72
2022/01/31 10:11:47;;;;;;;0.60;0.60;;;;;;;5.32;40.49;94069.31;2616182;54;20157;-73
2022/01/31 10:17:12;;;;;;;0.40;0.40;;;;;;;4.51;39.36;94024.41;2615827;47;20153;-73
2022/01/31 10:19:45;;;;;;;0.40;0.40;;;;;;;5.38;44.36;94047.09;2615700;47;20179;-72
2022/01/31 10:22:17;;;;;;;0.40;0.40;;;;;;;5.49;42.58;94042.63;2615644;47;20157;-72
2022/01/31 10:24:50;;;;;;;0.47;0.47;;;;;;;4.83;38.30;93960.59;2615523;47;20145;-72
2022/01/31 10:27:22;;;;;;;0.40;0.40;;;;;;;5.71;38.83;94061.13;2615590;47;20156;-72
2022/01/31 10:29:57;;;;;;;0.33;0.33;;;;;;;6.18;40.35;94051.75;2615607;39;20548;-72
2022/01/31 10:32:32;;;;;;;0.43;0.43;;;;;;;5.95;40.38;93982.69;2615395;47;20160;-74
2022/01/31 10:35:03;;;;;;;0.40;0.40;;;;;;;5.82;38.74;94008.13;2615595;54;20450;-72
2022/01/31 10:37:34;;;;;;;0.40;0.40;;;;;;;6.07;39.79;94016.19;2616214;54;20152;-70
2022/01/31 10:45:51;;;;;;;0.83;0.83;;;;;;;5.75;39.43;94015.59;2614976;47;20148;-72
2022/01/31 10:57:20;;;;;;;0.50;0.50;;;;;;;6.11;37.64;93970.63;2613178;47;20161;-71
2022/01/31 11:00:34;;;;;;;0.50;0.43;;;;;;;6.01;38.26;93979.41;2613759;54;20253;-72
2022/01/31 11:03:45;;;;;;;0.40;0.40;;;;;;;6.87;40.13;93935.41;2614145;39;20231;-73
2022/01/31 11:06:19;;;;;;;0.50;0.50;;;;;;;7.47;38.75;93953.63;2615286;54;20711;-70
2022/01/31 11:12:12;;;;;;;0.50;0.50;;;;;;;6.11;37.25;93897.53;2615662;47;20750;-74
2022/01/31 11:14:48;;;;;;;0.50;0.50;;;;;;;5.72;37.84;93887.66;2615527;54;20157;-72
2022/01/31 11:17:26;;;;;;;0.40;0.40;;;;;;;5.86;36.12;93895.91;2615925;39;20640;-74
2022/01/31 11:20:00;;;;;;;1.53;0.60;;;;;;;5.82;36.94;93857.13;2615348;47;20153;-73
2022/01/31 11:23:15;;;;;;;0.40;0.40;;;;;;;5.14;36.38;93790.66;2615357;54;20149;-73
2022/01/31 11:39:04;;;;;;;0.30;0.30;;;;;;;6.31;37.08;93867.34;2613275;47;20164;-71
2022/01/31 11:41:34;;;;;;;0.33;0.33;;;;;;;6.54;36.63;93894.91;2614709;54;20157;-70
2022/01/31 11:47:11;;;;;;;0.30;0.30;;;;;;;5.21;35.79;93722.88;2616166;47;20161;-76
2022/01/31 11:53:12;;;;;;;0.57;0.57;;;;;;;5.20;35.39;93701.78;2614814;47;20148;-72
2022/01/31 11:55:45;;;;;;;0.33;0.33;;;;;;;6.48;41.63;93782.16;2616262;47;20145;-73
2022/01/31 12:08:09;;;;;;;0.40;0.40;;;;;;;4.57;38.08;93550.06;2614023;47;20141;-70
2022/01/31 12:10:51;;;;;;;1.70;0.97;;;;;;;6.35;35.79;93795.09;2615966;47;20160;-71
2022/01/31 12:13:56;;;;;;;5.20;0.40;;;;;;;6.35;34.58;93839.38;2616383;54;20180;-70
2022/01/31 12:20:15;;;;;;;0.40;0.40;;;;;;;6.93;36.22;93832.19;2614341;46;20190;-70
2022/01/31 12:26:39;;;;;;;0.40;0.40;;;;;;;7.33;41.76;93708.09;2613869;47;20153;-70
2022/01/31 12:29:11;;;;;;;0.40;0.40;;;;;;;7.79;35.23;93762.25;2614462;47;20284;-72
2022/01/31 12:31:45;;;;;;;0.50;0.50;;;;;;;6.91;32.08;93808.88;2615445;47;20149;-72
2022/01/31 12:34:38;;;;;;;0.40;0.40;;;;;;;6.79;33.95;93758.56;2615385;54;20182;-70
2022/01/31 12:37:18;;;;;;;3.50;1.20;;;;;;;6.71;32.79;93764.63;2615576;47;20165;-71
2022/01/31 12:40:08;;;;;;;1.37;1.33;;;;;;;6.78;35.84;93734.59;2615617;54;20298;-71
2022/01/31 12:43:07;;;;;;;0.73;0.73;;;;;;;7.59;34.77;93767.31;2615616;47;20153;-75
2022/01/31 12:46:18;;;;;;;0.83;0.50;;;;;;;7.59;32.20;93789.84;2616113;54;20160;-73
2022/01/31 12:49:11;;;;;;;0.50;0.50;;;;;;;6.22;34.79;93644.22;2615661;47;20153;-72
2022/01/31 13:02:32;;;;;;;0.50;0.40;;;;;;;6.80;32.59;93688.91;2611994;47;20208;-70
2022/01/31 13:05:01;;;;;;;0.40;0.40;;;;;;;7.20;29.02;93771.06;2614428;39;20571;-69
2022/01/31 13:07:30;;;;;;;0.30;0.30;;;;;;;6.43;31.17;93761.59;2615738;54;20505;-70
2022/01/31 13:09:59;;;;;;;0.40;0.40;;;;;;;6.88;32.96;93757.44;2615969;47;20153;-69
2022/01/31 13:12:27;;;;;;;0.20;0.20;;;;;;;7.21;32.94;93750.72;2615635;54;20156;-71
2022/01/31 13:15:29;;;;;;;0.50;0.50;;;;;;;6.31;31.76;93589.66;2615443;39;20787;-72
2022/01/31 13:18:10;;;;;;;0.43;0.43;;;;;;;7.62;34.95;93746.97;2615396;54;20152;-73
2022/01/31 13:20:41;;;;;;;0.60;0.60;;;;;;;7.26;31.73;93726.91;2615994;47;20175;-73
2022/01/31 13:26:14;;;;;;;0.50;0.50;;;;;;;7.68;33.67;93752.06;2614888;47;20153;-71
2022/01/31 13:28:52;;;;;;;0.70;0.70;;;;;;;6.85;30.79;93668.66;2615009;54;20161;-71
2022/01/31 13:31:23;;;;;;;0.33;0.33;;;;;;;7.87;29.37;93764.56;2613724;47;20178;-72
2022/01/31 13:34:00;;;;;;;0.40;0.40;;;;;;;7.80;33.89;93718.56;2613175;47;20178;-73
2022/01/31 13:36:39;;;;;;;0.53;0.53;;;;;;;8.16;33.89;93741.41;2613838;47;20148;-75
2022/01/31 13:39:08;;;;;;;0.50;0.50;;;;;;;7.32;32.40;93738.38;2614231;54;20164;-71
2022/01/31 13:41:40;;;;;;;0.97;0.73;;;;;;;6.39;33.51;93710.88;2616138;39;20315;-70
2022/01/31 13:44:21;;;;;;;1.00;1.00;;;;;;;6.32;34.02;93619.22;2615906;54;20153;-71
2022/01/31 13:47:42;;;;;;;0.40;0.40;;;;;;;6.77;36.46;93682.50;2615707;54;20164;-74
2022/01/31 13:50:47;;;;;;;0.80;0.80;;;;;;;6.29;33.25;93544.63;2615502;54;20741;-71
2022/01/31 13:53:18;;;;;;;0.40;0.40;;;;;;;7.72;35.79;93721.19;2615722;54;20163;-72
2022/01/31 13:55:50;;;;;;;0.40;0.40;;;;;;;7.29;31.36;93733.31;2616120;54;20156;-72
2022/01/31 13:58:30;;;;;;;0.50;0.50;;;;;;;6.84;33.17;93723.50;2615433;54;20704;-71
2022/01/31 14:00:59;;;;;;;2.03;0.93;;;;;;;6.22;32.03;93649.84;2616291;54;21064;-71
2022/01/31 14:03:29;;;;;;;0.50;0.50;;;;;;;5.99;32.50;93698.28;2615476;47;20149;-71